createdAt,value
2018-11-01T00:00:38.668Z,6.70
2018-11-01T00:03:07.278Z,6.70
2018-11-01T00:05:35.769Z,6.80
2018-11-01T00:08:04.562Z,6.80
2018-11-01T00:10:33.173Z,6.80
2018-11-01T00:13:01.594Z,6.80
2018-11-01T00:15:30.185Z,6.80
2018-11-01T00:17:58.763Z,6.80
2018-11-01T00:20:29.681Z,6.80
2018-11-01T00:23:03.124Z,6.70
2018-11-01T00:25:31.917Z,6.80
2018-11-01T00:28:00.690Z,6.80
2018-11-01T00:30:29.177Z,6.80
2018-11-01T00:32:57.805Z,6.80
2018-11-01T00:35:26.547Z,6.80
2018-11-01T00:37:55.884Z,6.80
2018-11-01T00:40:24.524Z,6.80
2018-11-01T00:42:53.324Z,6.80
2018-11-01T00:45:22.126Z,6.80
2018-11-01T00:47:50.797Z,6.80
2018-11-01T00:50:19.555Z,6.80
2018-11-01T00:52:48.332Z,6.70
2018-11-01T00:55:16.873Z,6.80
2018-11-01T00:57:45.591Z,6.80
2018-11-01T01:00:15.297Z,6.80
2018-11-01T01:02:43.766Z,6.80
2018-11-01T01:05:12.560Z,6.80
2018-11-01T01:07:41.272Z,6.80
2018-11-01T01:10:14.209Z,6.80
2018-11-01T01:12:44.256Z,6.80
2018-11-01T01:15:13.045Z,6.80
2018-11-01T01:17:41.499Z,6.80
2018-11-01T01:20:12.850Z,6.80
2018-11-01T01:22:42.648Z,6.80
2018-11-01T01:25:12.924Z,6.70
2018-11-01T01:27:41.684Z,6.70
2018-11-01T01:30:19.192Z,6.70
2018-11-01T01:32:48.217Z,6.70
2018-11-01T01:35:17.103Z,6.60
2018-11-01T01:37:46.046Z,6.60
2018-11-01T01:40:14.972Z,6.60
2018-11-01T01:42:52.552Z,6.60
2018-11-01T01:45:21.542Z,6.50
2018-11-01T01:47:50.905Z,6.50
2018-11-01T01:50:20.234Z,6.50
2018-11-01T01:52:49.367Z,6.50
2018-11-01T01:55:24.571Z,6.40
2018-11-01T01:57:53.485Z,6.40
2018-11-01T02:00:22.512Z,6.40
2018-11-01T02:02:52.682Z,6.40
2018-11-01T02:05:21.543Z,6.40
2018-11-01T02:07:50.765Z,6.40
2018-11-01T02:10:19.440Z,6.30
2018-11-01T02:12:48.361Z,6.30
2018-11-01T02:15:18.538Z,6.20
2018-11-01T02:17:47.103Z,6.20
2018-11-01T02:20:17.176Z,6.20
2018-11-01T02:23:06.527Z,6.10
2018-11-01T02:25:35.832Z,6.10
2018-11-01T02:28:11.230Z,6.10
2018-11-01T02:30:39.904Z,6.10
2018-11-01T02:33:09.086Z,6.10
2018-11-01T02:35:37.689Z,6.10
2018-11-01T02:38:06.184Z,6.00
2018-11-01T02:40:34.725Z,6.00
2018-11-01T02:43:03.699Z,6.10
2018-11-01T02:45:32.338Z,6.00
2018-11-01T02:48:01.090Z,6.00
2018-11-01T02:50:30.187Z,6.00
2018-11-01T02:52:59.285Z,6.00
2018-11-01T02:55:27.916Z,5.90
2018-11-01T02:57:56.486Z,5.90
2018-11-01T03:00:26.045Z,5.80
2018-11-01T03:02:54.975Z,5.80
2018-11-01T03:05:23.828Z,5.90
2018-11-01T03:07:52.352Z,5.80
2018-11-01T03:10:21.081Z,5.80
2018-11-01T03:12:50.012Z,5.80
2018-11-01T03:15:18.722Z,5.80
2018-11-01T03:17:47.519Z,5.80
2018-11-01T03:20:16.718Z,5.80
2018-11-01T03:22:45.843Z,5.80
2018-11-01T03:25:14.920Z,5.80
2018-11-01T03:27:43.785Z,5.80
2018-11-01T03:30:12.637Z,5.70
2018-11-01T03:32:41.402Z,5.80
2018-11-01T03:35:11.291Z,5.70
2018-11-01T03:37:40.281Z,5.70
2018-11-01T03:40:10.588Z,5.70
2018-11-01T03:42:39.667Z,5.70
2018-11-01T03:45:09.700Z,5.70
2018-11-01T03:47:38.334Z,5.70
2018-11-01T03:50:07.295Z,5.70
2018-11-01T03:52:35.883Z,5.70
2018-11-01T03:55:06.068Z,5.70
2018-11-01T03:57:34.868Z,5.80
2018-11-01T04:00:04.248Z,5.80
2018-11-01T04:02:32.771Z,5.80
2018-11-01T04:05:01.311Z,5.80
2018-11-01T04:07:29.800Z,5.80
2018-11-01T04:09:58.199Z,5.80
2018-11-01T04:12:26.553Z,5.80
2018-11-01T04:14:55.038Z,5.80
2018-11-01T04:17:23.480Z,5.90
2018-11-01T04:19:51.986Z,5.90
2018-11-01T04:22:20.403Z,5.90
2018-11-01T04:24:48.835Z,6.00
2018-11-01T04:27:17.334Z,6.00
2018-11-01T04:29:45.771Z,6.00
2018-11-01T04:32:14.249Z,6.00
2018-11-01T04:34:42.662Z,6.00
2018-11-01T04:37:11.117Z,5.90
2018-11-01T04:39:39.718Z,5.90
2018-11-01T04:42:08.815Z,6.00
2018-11-01T04:44:37.536Z,6.00
2018-11-01T04:47:06.615Z,6.00
2018-11-01T04:49:36.128Z,6.00
2018-11-01T04:52:05.430Z,6.10
2018-11-01T04:54:33.910Z,6.10
2018-11-01T04:57:02.372Z,6.20
2018-11-01T04:59:30.857Z,6.20
2018-11-01T05:01:59.451Z,6.20
2018-11-01T05:04:28.240Z,6.20
2018-11-01T05:06:56.800Z,6.20
2018-11-01T05:09:25.314Z,6.20
2018-11-01T05:11:53.873Z,6.20
2018-11-01T05:14:22.209Z,6.30
2018-11-01T05:16:50.588Z,6.30
2018-11-01T05:19:19.076Z,6.30
2018-11-01T05:21:47.606Z,6.20
2018-11-01T05:24:16.072Z,6.20
2018-11-01T05:26:44.505Z,6.20
2018-11-01T05:29:12.898Z,6.30
2018-11-01T05:31:41.410Z,6.40
2018-11-01T05:34:10.087Z,6.40
2018-11-01T05:36:38.600Z,6.50
2018-11-01T05:39:10.865Z,6.60
2018-11-01T05:41:39.298Z,6.60
2018-11-01T05:44:07.802Z,6.50
2018-11-01T05:46:36.352Z,6.60
2018-11-01T05:49:05.386Z,6.60
2018-11-01T05:51:33.987Z,6.60
2018-11-01T05:54:02.317Z,6.70
2018-11-01T05:56:30.838Z,6.80
2018-11-01T05:58:59.281Z,6.80
2018-11-01T06:01:34.405Z,6.80
2018-11-01T06:04:03.619Z,6.80
2018-11-01T06:06:32.620Z,6.90
2018-11-01T06:09:02.580Z,6.90
2018-11-01T06:11:31.037Z,6.90
2018-11-01T06:13:59.456Z,6.90
2018-11-01T06:16:27.775Z,6.90
2018-11-01T06:18:56.375Z,6.90
2018-11-01T06:21:26.888Z,6.90
2018-11-01T06:23:55.694Z,6.90
2018-11-01T06:26:24.323Z,6.70
2018-11-01T06:28:52.586Z,6.70
2018-11-01T06:31:21.010Z,6.70
2018-11-01T06:33:49.356Z,6.70
2018-11-01T06:36:17.781Z,6.80
2018-11-01T06:38:46.278Z,6.80
2018-11-01T06:41:15.005Z,6.90
2018-11-01T06:43:43.462Z,6.90
2018-11-01T06:46:12.365Z,7.00
2018-11-01T06:48:40.850Z,7.00
2018-11-01T06:51:09.283Z,7.10
2018-11-01T06:53:37.741Z,7.10
2018-11-01T06:56:06.684Z,7.10
2018-11-01T06:58:35.466Z,7.10
2018-11-01T07:01:11.349Z,7.20
2018-11-01T07:03:39.875Z,7.20
2018-11-01T07:06:08.279Z,7.10
2018-11-01T07:08:36.742Z,7.10
2018-11-01T07:11:05.986Z,7.00
2018-11-01T07:13:34.400Z,7.00
2018-11-01T07:16:02.864Z,7.00
2018-11-01T07:18:31.364Z,7.00
2018-11-01T07:20:59.913Z,7.00
2018-11-01T07:23:28.826Z,7.10
2018-11-01T07:25:57.251Z,7.00
2018-11-01T07:28:25.830Z,7.00
2018-11-01T07:30:56.035Z,7.00
2018-11-01T07:33:25.129Z,7.10
2018-11-01T07:35:53.826Z,7.20
2018-11-01T07:38:22.710Z,7.30
2018-11-01T07:40:51.470Z,7.40
2018-11-01T07:43:19.920Z,7.50
2018-11-01T07:45:48.627Z,7.50
2018-11-01T07:48:17.118Z,7.50
2018-11-01T07:50:45.537Z,7.50
2018-11-01T07:53:15.254Z,7.50
2018-11-01T07:55:43.992Z,7.50
2018-11-01T07:58:15.121Z,7.50
2018-11-01T08:00:46.561Z,7.50
2018-11-01T08:03:18.627Z,7.60
2018-11-01T08:05:47.416Z,7.40
2018-11-01T08:08:16.529Z,7.40
2018-11-01T08:10:45.122Z,7.40
2018-11-01T08:13:13.981Z,7.60
2018-11-01T08:15:42.523Z,7.70
2018-11-01T08:18:11.251Z,7.80
2018-11-01T08:20:40.966Z,7.90
2018-11-01T08:23:09.882Z,8.10
2018-11-01T08:25:38.709Z,8.20
2018-11-01T08:28:08.524Z,8.20
2018-11-01T08:30:37.082Z,8.20
2018-11-01T08:33:06.172Z,8.20
2018-11-01T08:35:35.525Z,8.30
2018-11-01T08:38:08.121Z,8.40
2018-11-01T08:40:37.308Z,8.50
2018-11-01T08:43:06.004Z,8.60
2018-11-01T08:45:34.561Z,8.70
2018-11-01T08:48:03.240Z,8.80
2018-11-01T08:50:31.979Z,8.90
2018-11-01T08:53:00.608Z,8.90
2018-11-01T08:55:29.287Z,9.00
2018-11-01T08:57:57.881Z,9.10
2018-11-01T09:00:26.983Z,9.10
2018-11-01T09:02:55.491Z,9.20
2018-11-01T09:05:23.977Z,9.30
2018-11-01T09:07:52.709Z,9.10
2018-11-01T09:10:21.163Z,8.80
2018-11-01T09:12:49.763Z,8.60
2018-11-01T09:15:24.376Z,8.40
2018-11-01T09:17:53.040Z,8.40
2018-11-01T09:20:22.456Z,8.40
2018-11-01T09:22:55.918Z,8.30
2018-11-01T09:25:25.171Z,8.10
2018-11-01T09:27:56.550Z,8.00
2018-11-01T09:30:27.705Z,8.00
2018-11-01T09:32:58.656Z,8.00
2018-11-01T09:35:29.822Z,8.00
2018-11-01T09:37:58.533Z,8.10
2018-11-01T09:40:27.474Z,8.20
2018-11-01T09:42:56.304Z,8.20
2018-11-01T09:48:19.477Z,8.50
2018-11-01T09:50:48.828Z,8.60
2018-11-01T09:53:17.990Z,8.80
2018-11-01T09:55:47.333Z,8.70
2018-11-01T09:58:15.793Z,8.80
2018-11-01T10:00:45.003Z,8.90
2018-11-01T10:03:14.137Z,9.00
2018-11-01T10:05:43.923Z,9.10
2018-11-01T10:25:51.596Z,9.30
2018-11-01T10:28:20.809Z,9.20
2018-11-01T10:30:49.869Z,9.40
2018-11-01T10:33:18.446Z,9.60
2018-11-01T10:35:47.311Z,9.60
2018-11-01T10:38:16.390Z,9.50
2018-11-01T10:40:45.368Z,9.50
2018-11-01T10:43:14.547Z,9.40
2018-11-01T10:45:45.500Z,9.30
2018-11-01T10:48:14.182Z,9.30
2018-11-01T10:50:46.501Z,9.30
2018-11-01T10:53:15.017Z,9.40
2018-11-01T10:55:43.990Z,9.30
2018-11-01T10:58:12.734Z,9.40
2018-11-01T11:00:48.604Z,9.40
2018-11-01T11:06:56.405Z,9.50
2018-11-01T11:26:25.783Z,9.70
2018-11-01T11:28:55.232Z,10.10
2018-11-01T11:31:23.638Z,10.20
2018-11-01T11:33:52.076Z,10.30
2018-11-01T11:36:20.726Z,10.30
2018-11-01T11:38:49.222Z,10.40
2018-11-01T11:41:17.701Z,10.40
2018-11-01T11:43:46.288Z,10.50
2018-11-01T11:46:14.761Z,10.60
2018-11-01T11:48:43.591Z,10.60
2018-11-01T11:51:12.455Z,10.70
2018-11-01T11:53:41.217Z,10.70
2018-11-01T11:56:10.531Z,10.80
2018-11-01T11:58:39.631Z,10.80
2018-11-01T12:01:08.310Z,10.90
2018-11-01T12:03:37.024Z,10.90
2018-11-01T12:06:12.115Z,10.90
2018-11-01T12:08:41.160Z,11.10
2018-11-01T12:11:09.717Z,11.20
2018-11-01T12:13:38.315Z,11.20
2018-11-01T12:16:06.881Z,11.40
2018-11-01T12:18:35.750Z,11.50
2018-11-01T12:21:04.450Z,11.60
2018-11-01T12:23:33.146Z,11.70
2018-11-01T12:26:02.248Z,11.80
2018-11-01T12:28:55.750Z,11.90
2018-11-01T12:31:39.439Z,12.00
2018-11-01T12:34:08.085Z,12.20
2018-11-01T12:36:36.460Z,12.40
2018-11-01T12:39:06.524Z,12.60
2018-11-01T12:41:35.278Z,12.80
2018-11-01T12:44:03.875Z,12.90
2018-11-01T12:46:32.374Z,13.30
2018-11-01T12:49:01.393Z,13.30
2018-11-01T12:51:30.233Z,13.30
2018-11-01T12:53:59.121Z,13.30
2018-11-01T12:56:28.565Z,13.30
2018-11-01T12:58:57.057Z,13.40
2018-11-01T13:01:26.643Z,13.30
2018-11-01T13:03:55.215Z,13.30
2018-11-01T13:06:24.137Z,13.30
2018-11-01T13:08:53.928Z,13.30
2018-11-01T13:11:22.887Z,13.20
2018-11-01T13:13:51.665Z,13.20
2018-11-01T13:16:20.165Z,13.30
2018-11-01T13:18:48.645Z,13.40
2018-11-01T13:21:17.253Z,13.40
2018-11-01T13:23:45.761Z,13.40
2018-11-01T13:26:14.228Z,13.40
2018-11-01T13:28:42.948Z,13.30
2018-11-01T13:31:11.511Z,13.30
2018-11-01T13:33:40.101Z,13.30
2018-11-01T13:36:08.664Z,13.30
2018-11-01T13:38:37.275Z,13.30
2018-11-01T13:41:06.810Z,13.30
2018-11-01T13:43:35.218Z,13.20
2018-11-01T13:46:03.791Z,13.20
2018-11-01T13:48:32.690Z,13.20
2018-11-01T13:51:01.014Z,13.20
2018-11-01T13:53:30.829Z,13.30
2018-11-01T13:55:59.725Z,13.30
2018-11-01T13:58:28.459Z,13.30
2018-11-01T14:00:57.181Z,13.30
2018-11-01T14:03:25.870Z,13.20
2018-11-01T14:05:55.019Z,13.30
2018-11-01T14:08:24.148Z,13.30
2018-11-01T14:10:55.780Z,13.20
2018-11-01T14:13:24.920Z,13.30
2018-11-01T14:15:55.055Z,13.30
2018-11-01T14:18:24.524Z,13.30
2018-11-01T14:20:54.184Z,13.30
2018-11-01T14:23:24.557Z,13.30
2018-11-01T14:25:54.590Z,13.30
2018-11-01T14:28:23.357Z,13.30
2018-11-01T14:30:58.630Z,13.20
2018-11-01T14:33:27.201Z,13.20
2018-11-01T14:35:55.856Z,13.20
2018-11-01T14:38:24.903Z,13.30
2018-11-01T14:40:53.345Z,13.30
2018-11-01T14:43:22.435Z,13.20
2018-11-01T14:45:50.779Z,13.10
2018-11-01T14:48:19.673Z,12.90
2018-11-01T14:50:48.193Z,12.90
2018-11-01T14:53:17.792Z,12.80
2018-11-01T14:55:46.620Z,12.80
2018-11-01T14:58:15.738Z,12.80
2018-11-01T15:00:43.663Z,12.80
2018-11-01T15:03:13.002Z,12.80
2018-11-01T15:05:41.514Z,12.80
2018-11-01T15:08:10.083Z,12.70
2018-11-01T15:10:38.625Z,12.70
2018-11-01T15:13:07.513Z,12.60
2018-11-01T15:15:36.463Z,12.60
2018-11-01T15:18:05.824Z,12.50
2018-11-01T15:20:34.675Z,12.50
2018-11-01T15:23:03.445Z,12.50
2018-11-01T15:25:32.280Z,12.40
2018-11-01T15:28:01.131Z,12.40
2018-11-01T15:30:29.556Z,12.40
2018-11-01T15:32:58.197Z,12.40
2018-11-01T15:35:27.387Z,12.30
2018-11-01T15:37:56.505Z,12.30
2018-11-01T15:40:25.274Z,12.20
2018-11-01T15:42:53.886Z,12.20
2018-11-01T15:45:22.476Z,12.20
2018-11-01T15:47:51.841Z,12.10
2018-11-01T15:50:20.280Z,12.10
2018-11-01T15:52:48.832Z,12.00
2018-11-01T15:55:17.968Z,11.90
2018-11-01T15:57:47.172Z,11.90
2018-11-01T16:00:15.636Z,11.90
2018-11-01T16:02:45.044Z,11.90
2018-11-01T16:05:14.395Z,11.80
2018-11-01T16:07:42.903Z,11.70
2018-11-01T16:10:12.069Z,11.70
2018-11-01T16:12:40.678Z,11.60
2018-11-01T16:15:13.270Z,11.50
2018-11-01T16:17:41.707Z,11.40
2018-11-01T16:20:10.397Z,11.40
2018-11-01T16:22:40.806Z,11.30
2018-11-01T16:25:09.392Z,11.30
2018-11-01T16:27:39.579Z,11.20
2018-11-01T16:30:08.822Z,11.10
2018-11-01T16:32:37.259Z,11.10
2018-11-01T16:35:06.604Z,11.10
2018-11-01T16:37:35.493Z,11.10
2018-11-01T16:40:06.104Z,11.00
2018-11-01T16:42:34.541Z,11.00
2018-11-01T16:45:02.973Z,10.80
2018-11-01T16:47:31.509Z,10.80
2018-11-01T16:50:02.728Z,10.70
2018-11-01T16:52:31.261Z,10.60
2018-11-01T16:54:59.786Z,10.60
2018-11-01T16:57:28.284Z,10.50
2018-11-01T16:59:56.643Z,10.40
2018-11-01T17:02:25.135Z,10.30
2018-11-01T17:04:53.610Z,10.10
2018-11-01T17:07:22.434Z,10.00
2018-11-01T17:09:50.931Z,10.00
2018-11-01T17:12:19.593Z,10.00
2018-11-01T17:14:48.223Z,10.00
2018-11-01T17:17:16.816Z,10.00
2018-11-01T17:19:45.544Z,9.90
2018-11-01T17:22:13.983Z,9.90
2018-11-01T17:24:42.638Z,9.80
2018-11-01T17:27:11.184Z,9.80
2018-11-01T17:29:40.214Z,9.70
2018-11-01T17:32:11.454Z,9.70
2018-11-01T17:34:41.497Z,9.60
2018-11-01T17:37:12.382Z,9.50
2018-11-01T17:39:40.982Z,9.50
2018-11-01T17:42:09.491Z,9.60
2018-11-01T17:44:40.008Z,9.60
2018-11-01T17:47:10.986Z,9.60
2018-11-01T17:53:22.009Z,9.60
2018-11-01T17:55:50.613Z,9.50
2018-11-01T17:58:18.995Z,9.50
2018-11-01T18:00:47.775Z,9.50
2018-11-01T18:03:16.237Z,9.50
2018-11-01T18:05:44.901Z,9.50
2018-11-01T18:08:13.510Z,9.50
2018-11-01T18:10:42.143Z,9.50
2018-11-01T18:13:11.208Z,9.60
2018-11-01T18:15:39.876Z,9.50
2018-11-01T18:18:08.551Z,9.40
2018-11-01T18:20:37.397Z,9.50
2018-11-01T18:23:06.465Z,9.50
2018-11-01T18:25:39.738Z,9.40
2018-11-01T18:28:08.342Z,9.40
2018-11-01T18:30:37.114Z,9.50
2018-11-01T18:33:06.574Z,9.50
2018-11-01T18:35:35.033Z,9.50
2018-11-01T18:38:04.157Z,9.50
2018-11-01T18:40:33.840Z,9.50
2018-11-01T18:43:07.217Z,9.60
2018-11-01T18:45:35.568Z,9.60
2018-11-01T18:48:05.675Z,9.70
2018-11-01T18:50:34.464Z,9.70
2018-11-01T18:53:03.421Z,9.60
2018-11-01T18:55:31.817Z,9.70
2018-11-01T18:58:00.557Z,9.70
2018-11-01T19:00:29.303Z,9.70
2018-11-01T19:02:57.835Z,9.80
2018-11-01T19:05:26.323Z,9.90
2018-11-01T19:07:54.699Z,9.90
2018-11-01T19:10:23.224Z,10.00
2018-11-01T19:12:53.309Z,10.00
2018-11-01T19:15:21.783Z,10.00
2018-11-01T19:17:50.610Z,10.00
2018-11-01T19:20:19.030Z,10.10
2018-11-01T19:22:47.474Z,10.10
2018-11-01T19:27:55.346Z,10.20
2018-11-01T19:33:03.688Z,10.20
2018-11-01T19:35:32.344Z,10.20
2018-11-01T19:38:00.823Z,10.20
2018-11-01T19:40:30.302Z,10.20
2018-11-01T19:42:59.126Z,10.20
2018-11-01T19:45:27.893Z,10.20
2018-11-01T19:47:56.764Z,10.20
2018-11-01T19:50:26.290Z,10.20
2018-11-01T19:52:55.182Z,10.20
2018-11-01T19:55:23.933Z,10.20
2018-11-01T19:57:53.547Z,10.20
2018-11-01T20:00:22.115Z,10.10
2018-11-01T20:02:51.601Z,10.10
2018-11-01T20:05:20.339Z,10.10
2018-11-01T20:07:48.957Z,10.10
2018-11-01T20:10:17.626Z,10.10
2018-11-01T20:12:47.148Z,9.90
2018-11-01T20:15:16.080Z,9.90
2018-11-01T20:17:47.842Z,9.90
2018-11-01T20:20:17.426Z,9.90
2018-11-01T20:22:49.494Z,10.00
2018-11-01T20:25:22.705Z,10.00
2018-11-01T20:27:58.028Z,9.90
2018-11-01T20:30:29.459Z,9.90
2018-11-01T20:36:35.029Z,9.80
2018-11-01T20:39:09.831Z,9.80
2018-11-01T20:41:39.142Z,9.70
2018-11-01T20:44:08.872Z,9.80
2018-11-01T20:46:40.315Z,9.80
2018-11-01T20:49:11.252Z,9.80
2018-11-01T20:51:43.634Z,9.70
2018-11-01T20:54:16.023Z,9.70
2018-11-01T20:56:53.892Z,9.70
2018-11-01T20:59:29.962Z,9.70
2018-11-01T21:02:04.337Z,9.60
2018-11-01T21:04:45.323Z,9.60
2018-11-01T21:07:13.797Z,9.60
2018-11-01T21:09:42.474Z,9.60
2018-11-01T21:12:11.382Z,9.60
2018-11-01T21:14:40.623Z,9.60
2018-11-01T21:17:11.151Z,9.60
2018-11-01T21:19:40.225Z,9.50
2018-11-01T21:22:12.900Z,9.50
2018-11-01T21:24:42.622Z,9.50
2018-11-01T21:27:13.126Z,9.50
2018-11-01T21:29:42.013Z,9.50
2018-11-01T21:32:10.894Z,9.50
2018-11-01T21:34:40.154Z,9.40
2018-11-01T21:37:08.616Z,9.50
2018-11-01T21:39:37.402Z,9.40
2018-11-01T21:42:06.325Z,9.40
2018-11-01T21:44:35.215Z,9.50
2018-11-01T21:47:05.257Z,9.40
2018-11-01T21:49:35.061Z,9.40
2018-11-01T21:52:04.290Z,9.40
2018-11-01T21:54:33.392Z,9.30
2018-11-01T21:57:02.881Z,9.30
2018-11-01T21:59:32.088Z,9.30
2018-11-01T22:02:00.598Z,9.30
2018-11-01T22:04:29.337Z,9.20
2018-11-01T22:06:58.609Z,9.20
2018-11-01T22:09:28.609Z,9.20
2018-11-01T22:11:57.600Z,9.20
2018-11-01T22:14:26.837Z,9.20
2018-11-01T22:16:56.156Z,9.20
2018-11-01T22:19:24.609Z,9.20
2018-11-01T22:21:53.137Z,9.20
2018-11-01T22:24:21.694Z,9.20
2018-11-01T22:26:50.061Z,9.10
2018-11-01T22:29:18.595Z,9.20
2018-11-01T22:31:47.256Z,9.10
2018-11-01T22:34:15.594Z,9.10
2018-11-01T22:36:44.048Z,9.10
2018-11-01T22:39:12.566Z,9.10
2018-11-01T22:41:40.953Z,9.00
2018-11-01T22:44:10.201Z,9.00
2018-11-01T22:46:38.700Z,9.00
2018-11-01T22:49:07.516Z,8.90
2018-11-01T22:51:36.068Z,8.80
2018-11-01T22:54:05.414Z,8.80
2018-11-01T22:56:38.693Z,8.70
2018-11-01T22:59:12.174Z,8.70
2018-11-01T23:01:43.760Z,8.70
2018-11-01T23:04:12.916Z,8.70
2018-11-01T23:06:41.610Z,8.60
2018-11-01T23:09:11.672Z,8.60
2018-11-01T23:11:40.444Z,8.60
2018-11-01T23:14:09.356Z,8.60
2018-11-01T23:16:37.872Z,8.50
2018-11-01T23:19:08.033Z,8.50
2018-11-01T23:21:36.673Z,8.40
2018-11-01T23:24:06.118Z,8.30
2018-11-01T23:26:34.726Z,8.20
2018-11-01T23:29:04.419Z,8.20
2018-11-01T23:31:33.666Z,8.20
2018-11-01T23:34:04.240Z,8.20
2018-11-01T23:36:38.913Z,8.20
2018-11-01T23:39:15.313Z,8.20
2018-11-01T23:41:49.596Z,8.20
2018-11-01T23:44:23.886Z,8.20
2018-11-01T23:46:57.990Z,8.20
2018-11-01T23:49:34.353Z,8.10
2018-11-01T23:52:07.317Z,8.10
2018-11-01T23:54:35.964Z,8.00
2018-11-01T23:57:11.655Z,8.00
2018-11-01T23:59:42.201Z,8.00
